createdAt,value
2017-10-30T00:00:05.347Z,20.87
2017-10-30T00:02:33.306Z,19.47
2017-10-30T00:05:02.293Z,22.77
2017-10-30T00:07:30.183Z,11.43
2017-10-30T00:09:58.000Z,23.53
2017-10-30T00:12:26.280Z,12.63
2017-10-30T00:14:54.184Z,12.27
2017-10-30T00:17:22.260Z,15.57
2017-10-30T00:19:50.024Z,19.00
2017-10-30T00:22:18.691Z,10.97
2017-10-30T00:24:46.470Z,24.27
2017-10-30T00:27:14.442Z,12.53
2017-10-30T00:29:42.307Z,15.30
2017-10-30T00:32:10.343Z,11.40
2017-10-30T00:34:38.435Z,20.10
2017-10-30T00:37:06.299Z,32.53
2017-10-30T00:39:34.094Z,12.77
2017-10-30T00:42:02.031Z,17.10
2017-10-30T00:44:29.898Z,7.93
2017-10-30T00:46:57.966Z,18.13
2017-10-30T00:49:26.158Z,26.07
2017-10-30T00:51:54.028Z,17.43
2017-10-30T00:54:22.285Z,11.20
2017-10-30T00:56:50.288Z,14.03
2017-10-30T00:59:18.223Z,14.90
2017-10-30T01:01:46.191Z,18.93
2017-10-30T01:04:14.090Z,21.27
2017-10-30T01:06:41.952Z,13.43
2017-10-30T01:09:09.831Z,21.77
2017-10-30T01:11:37.657Z,17.73
2017-10-30T01:14:05.479Z,14.70
2017-10-30T01:16:35.059Z,13.43
2017-10-30T01:19:02.870Z,16.03
2017-10-30T01:21:30.783Z,10.73
2017-10-30T01:23:58.673Z,8.03
2017-10-30T01:26:27.415Z,14.13
2017-10-30T01:28:55.793Z,8.30
2017-10-30T01:31:24.495Z,13.53
2017-10-30T01:33:52.364Z,9.30
2017-10-30T01:36:20.413Z,13.87
2017-10-30T01:38:48.282Z,8.40
2017-10-30T01:41:16.186Z,18.53
2017-10-30T01:43:44.861Z,17.60
2017-10-30T01:46:12.828Z,10.43
2017-10-30T01:48:41.362Z,15.03
2017-10-30T01:51:09.253Z,12.90
2017-10-30T01:53:37.035Z,13.90
2017-10-30T01:56:05.218Z,16.67
2017-10-30T01:58:33.070Z,7.00
2017-10-30T02:01:00.917Z,15.60
2017-10-30T02:03:28.803Z,13.77
2017-10-30T02:05:56.672Z,10.27
2017-10-30T02:08:24.743Z,12.20
2017-10-30T02:10:52.759Z,16.83
2017-10-30T02:13:20.546Z,15.63
2017-10-30T02:15:48.449Z,12.37
2017-10-30T02:18:16.218Z,11.20
2017-10-30T02:20:44.258Z,15.13
2017-10-30T02:23:12.453Z,12.97
2017-10-30T02:25:40.328Z,8.67
2017-10-30T02:28:08.179Z,10.03
2017-10-30T02:30:36.273Z,17.83
2017-10-30T02:33:04.237Z,8.27
2017-10-30T02:35:32.586Z,16.80
2017-10-30T02:38:00.527Z,7.83
2017-10-30T02:40:29.193Z,9.73
2017-10-30T02:42:57.844Z,14.20
2017-10-30T02:45:26.066Z,17.63
2017-10-30T02:47:54.000Z,9.87
2017-10-30T02:50:21.908Z,11.03
2017-10-30T02:52:49.909Z,19.10
2017-10-30T02:55:17.790Z,16.47
2017-10-30T02:57:45.842Z,7.63
2017-10-30T03:00:14.123Z,10.07
2017-10-30T03:02:42.193Z,9.40
2017-10-30T03:05:10.262Z,22.67
2017-10-30T03:07:38.451Z,8.00
2017-10-30T03:10:06.507Z,15.10
2017-10-30T03:12:34.578Z,14.30
2017-10-30T03:15:02.771Z,12.57
2017-10-30T03:17:30.922Z,15.40
2017-10-30T03:19:59.324Z,8.83
2017-10-30T03:22:27.374Z,15.00
2017-10-30T03:24:55.360Z,20.40
2017-10-30T03:27:23.438Z,23.63
2017-10-30T03:29:51.312Z,27.43
2017-10-30T03:32:19.274Z,17.27
2017-10-30T03:34:47.145Z,11.63
2017-10-30T03:37:15.088Z,14.73
2017-10-30T03:39:42.984Z,9.50
2017-10-30T03:42:10.864Z,18.87
2017-10-30T03:44:40.320Z,16.73
2017-10-30T03:47:08.495Z,10.50
2017-10-30T03:49:36.322Z,18.20
2017-10-30T03:52:05.063Z,20.90
2017-10-30T03:54:33.747Z,10.87
2017-10-30T03:57:02.744Z,19.77
2017-10-30T03:59:30.607Z,15.43
2017-10-30T04:01:58.766Z,11.90
2017-10-30T04:04:26.840Z,12.60
2017-10-30T04:06:55.240Z,22.93
2017-10-30T04:09:23.176Z,8.67
2017-10-30T04:11:51.052Z,12.47
2017-10-30T04:14:19.247Z,10.43
2017-10-30T04:16:47.107Z,17.53
2017-10-30T04:19:15.082Z,10.57
2017-10-30T04:21:43.763Z,13.07
2017-10-30T04:24:11.611Z,18.87
2017-10-30T04:26:39.387Z,15.80
2017-10-30T04:29:07.153Z,17.83
2017-10-30T04:31:35.025Z,31.30
2017-10-30T04:34:04.039Z,14.77
2017-10-30T04:36:32.801Z,23.57
2017-10-30T04:39:02.391Z,19.60
2017-10-30T04:41:30.463Z,9.00
2017-10-30T04:43:58.315Z,17.40
2017-10-30T04:46:26.210Z,23.63
2017-10-30T04:48:54.275Z,19.13
2017-10-30T04:51:22.253Z,21.03
2017-10-30T04:53:50.190Z,21.53
2017-10-30T04:56:17.964Z,15.40
2017-10-30T04:58:46.364Z,16.77
2017-10-30T05:01:14.213Z,29.90
2017-10-30T05:03:42.098Z,26.40
2017-10-30T05:06:10.151Z,24.63
2017-10-30T05:08:37.931Z,21.13
2017-10-30T05:11:06.906Z,14.87
2017-10-30T05:13:34.713Z,20.03
2017-10-30T05:16:02.492Z,27.83
2017-10-30T05:18:31.139Z,18.30
2017-10-30T05:20:59.307Z,22.43
2017-10-30T05:23:27.260Z,32.43
2017-10-30T05:25:55.249Z,27.47
2017-10-30T05:28:24.736Z,20.93
2017-10-30T05:30:52.824Z,18.80
2017-10-30T05:33:20.707Z,35.87
2017-10-30T05:35:49.289Z,14.87
2017-10-30T05:38:17.147Z,24.63
2017-10-30T05:40:45.909Z,20.77
2017-10-30T05:43:14.010Z,21.40
2017-10-30T05:45:42.008Z,29.50
2017-10-30T05:48:10.763Z,18.60
2017-10-30T05:50:38.546Z,11.83
2017-10-30T05:53:07.208Z,25.27
2017-10-30T05:55:35.171Z,29.20
2017-10-30T05:58:03.023Z,26.77
2017-10-30T06:00:30.992Z,27.47
2017-10-30T06:02:59.193Z,24.57
2017-10-30T06:05:27.012Z,26.23
2017-10-30T06:07:54.926Z,25.63
2017-10-30T06:10:22.784Z,14.60
2017-10-30T06:12:50.649Z,20.40
2017-10-30T06:15:18.399Z,23.63
2017-10-30T06:17:46.380Z,21.43
2017-10-30T06:20:14.246Z,21.40
2017-10-30T06:22:42.013Z,22.63
2017-10-30T06:25:09.975Z,25.73
2017-10-30T06:27:37.864Z,13.50
2017-10-30T06:30:05.717Z,32.00
2017-10-30T06:32:33.581Z,29.97
2017-10-30T06:35:01.659Z,28.40
2017-10-30T06:37:29.600Z,27.53
2017-10-30T06:39:57.534Z,18.73
2017-10-30T06:42:25.361Z,19.83
2017-10-30T06:44:53.299Z,19.50
2017-10-30T06:47:21.271Z,22.93
2017-10-30T06:49:49.464Z,25.40
2017-10-30T06:52:17.413Z,18.40
2017-10-30T06:54:45.408Z,20.60
2017-10-30T06:57:13.522Z,27.97
2017-10-30T06:59:41.305Z,26.33
2017-10-30T07:02:30.178Z,24.10
2017-10-30T07:04:58.089Z,58.93
2017-10-30T07:07:26.832Z,434.37
2017-10-30T07:09:54.736Z,404.10
2017-10-30T07:12:22.666Z,86.37
2017-10-30T07:14:50.740Z,25.17
2017-10-30T07:17:18.913Z,31.87
2017-10-30T07:19:47.701Z,16.27
2017-10-30T07:22:15.878Z,17.03
2017-10-30T07:24:44.969Z,29.63
2017-10-30T07:27:13.755Z,33.73
2017-10-30T07:29:41.708Z,28.00
2017-10-30T07:32:09.627Z,43.10
2017-10-30T07:34:38.374Z,18.30
2017-10-30T07:37:06.451Z,19.90
2017-10-30T07:39:34.571Z,19.83
2017-10-30T07:42:03.312Z,16.73
2017-10-30T07:44:31.281Z,13.60
2017-10-30T07:46:59.181Z,13.63
2017-10-30T07:49:27.942Z,33.80
2017-10-30T07:51:56.522Z,16.77
2017-10-30T07:54:24.894Z,22.40
2017-10-30T07:56:52.965Z,25.00
2017-10-30T07:59:21.139Z,15.10
2017-10-30T08:01:49.115Z,20.97
2017-10-30T08:04:17.317Z,17.50
2017-10-30T08:06:46.102Z,16.93
2017-10-30T08:09:14.701Z,15.53
2017-10-30T08:11:43.476Z,16.90
2017-10-30T08:14:12.433Z,22.00
2017-10-30T08:16:40.401Z,21.40
2017-10-30T08:19:08.471Z,16.87
2017-10-30T08:21:36.547Z,22.43
2017-10-30T08:24:04.513Z,20.40
2017-10-30T08:26:32.585Z,20.17
2017-10-30T08:29:00.755Z,33.17
2017-10-30T08:31:29.034Z,19.10
2017-10-30T08:33:57.119Z,23.97
2017-10-30T08:36:25.281Z,26.40
2017-10-30T08:38:53.354Z,19.27
2017-10-30T08:41:21.522Z,17.40
2017-10-30T08:43:49.805Z,19.17
2017-10-30T08:46:17.871Z,25.77
2017-10-30T08:48:45.942Z,31.47
2017-10-30T08:51:14.014Z,23.03
2017-10-30T08:53:42.084Z,23.83
2017-10-30T08:56:10.171Z,21.23
2017-10-30T08:58:38.330Z,18.63
2017-10-30T09:01:06.402Z,18.70
2017-10-30T09:03:34.472Z,21.63
2017-10-30T09:06:02.553Z,16.80
2017-10-30T09:08:30.718Z,14.80
2017-10-30T09:10:58.789Z,20.47
2017-10-30T09:13:26.862Z,20.03
2017-10-30T09:15:54.933Z,19.83
2017-10-30T09:18:23.002Z,17.17
2017-10-30T09:20:51.091Z,16.80
2017-10-30T09:23:20.458Z,11.90
2017-10-30T09:25:48.565Z,16.60
2017-10-30T09:28:18.190Z,19.90
2017-10-30T09:30:47.047Z,20.50
2017-10-30T09:33:15.538Z,18.17
2017-10-30T09:35:43.804Z,14.77
2017-10-30T09:38:12.112Z,13.97
2017-10-30T09:40:40.291Z,22.57
2017-10-30T09:43:08.967Z,36.03
2017-10-30T09:45:36.839Z,24.50
2017-10-30T09:48:05.856Z,40.67
2017-10-30T09:50:33.868Z,26.70
2017-10-30T09:53:01.845Z,27.13
2017-10-30T09:55:29.844Z,19.60
2017-10-30T09:57:58.800Z,15.47
2017-10-30T10:00:26.871Z,14.60
2017-10-30T10:02:55.146Z,66.00
2017-10-30T10:05:23.421Z,42.77
2017-10-30T10:07:51.502Z,17.67
2017-10-30T10:10:19.682Z,27.53
2017-10-30T10:12:47.738Z,12.90
2017-10-30T10:15:16.433Z,11.20
2017-10-30T10:17:44.393Z,18.73
2017-10-30T10:20:12.466Z,21.47
2017-10-30T10:22:40.539Z,18.63
2017-10-30T10:25:08.708Z,14.30
2017-10-30T10:27:36.782Z,8.17
2017-10-30T10:30:04.851Z,14.83
2017-10-30T10:32:32.923Z,18.50
2017-10-30T10:35:00.994Z,14.07
2017-10-30T10:37:29.003Z,15.50
2017-10-30T10:39:57.958Z,37.17
2017-10-30T10:42:25.948Z,19.47
2017-10-30T10:44:53.995Z,21.67
2017-10-30T10:47:21.965Z,16.80
2017-10-30T10:49:50.140Z,11.67
2017-10-30T10:52:18.312Z,22.03
2017-10-30T10:54:46.215Z,15.80
2017-10-30T10:57:15.072Z,17.53
2017-10-30T10:59:43.040Z,24.50
2017-10-30T11:02:11.110Z,12.73
2017-10-30T11:04:39.080Z,9.03
2017-10-30T11:07:07.091Z,16.60
2017-10-30T11:09:36.041Z,17.23
2017-10-30T11:12:03.912Z,10.83
2017-10-30T11:14:31.983Z,13.07
2017-10-30T11:17:00.053Z,13.40
2017-10-30T11:19:28.368Z,11.03
2017-10-30T11:21:57.215Z,15.23
2017-10-30T11:24:25.184Z,10.20
2017-10-30T11:26:58.582Z,8.33
2017-10-30T11:29:26.462Z,14.83
2017-10-30T11:31:54.620Z,26.10
2017-10-30T11:34:22.507Z,14.23
2017-10-30T11:36:50.372Z,14.53
2017-10-30T11:39:18.342Z,10.37
2017-10-30T11:41:46.219Z,13.50
2017-10-30T11:44:14.076Z,11.27
2017-10-30T11:46:41.952Z,13.33
2017-10-30T11:49:09.941Z,16.77
2017-10-30T11:51:38.480Z,10.73
2017-10-30T11:54:06.369Z,20.43
2017-10-30T11:56:34.231Z,13.33
2017-10-30T11:59:02.088Z,5.20
2017-10-30T12:01:29.963Z,11.23
2017-10-30T12:03:57.911Z,22.20
2017-10-30T12:06:25.887Z,13.30
2017-10-30T12:08:53.849Z,17.50
2017-10-30T12:11:22.740Z,9.03
2017-10-30T12:13:50.809Z,10.73
2017-10-30T12:16:18.882Z,12.00
2017-10-30T12:18:46.966Z,15.20
2017-10-30T12:21:15.741Z,11.87
2017-10-30T12:23:43.711Z,15.63
2017-10-30T12:26:11.746Z,19.17
2017-10-30T12:28:39.854Z,13.40
2017-10-30T12:31:07.922Z,15.37
2017-10-30T12:33:35.933Z,18.03
2017-10-30T12:36:04.575Z,12.83
2017-10-30T12:38:32.458Z,11.40
2017-10-30T12:41:00.344Z,20.57
2017-10-30T12:43:29.022Z,15.50
2017-10-30T12:45:57.211Z,27.60
2017-10-30T12:48:25.874Z,8.43
2017-10-30T12:50:53.829Z,11.10
2017-10-30T12:53:21.903Z,17.40
2017-10-30T12:55:49.889Z,8.67
2017-10-30T12:58:18.201Z,13.23
2017-10-30T13:00:46.849Z,12.83
2017-10-30T13:03:14.822Z,16.77
2017-10-30T13:05:42.680Z,13.40
2017-10-30T13:08:10.547Z,12.20
2017-10-30T13:10:39.322Z,11.73
2017-10-30T13:13:07.207Z,12.10
2017-10-30T13:15:35.152Z,22.30
2017-10-30T13:18:03.249Z,12.27
2017-10-30T13:20:31.227Z,13.47
2017-10-30T13:22:59.085Z,19.47
2017-10-30T13:25:27.038Z,18.70
2017-10-30T13:27:54.920Z,11.47
2017-10-30T13:30:23.629Z,21.63
2017-10-30T13:32:52.383Z,19.30
2017-10-30T13:35:20.267Z,15.93
2017-10-30T13:37:48.238Z,10.23
2017-10-30T13:40:16.206Z,16.47
2017-10-30T13:42:44.363Z,11.07
2017-10-30T13:45:12.255Z,19.30
2017-10-30T13:47:40.849Z,19.50
2017-10-30T13:50:09.510Z,12.03
2017-10-30T13:52:37.457Z,9.83
2017-10-30T13:55:05.382Z,16.63
2017-10-30T13:57:33.311Z,6.50
2017-10-30T14:00:01.185Z,16.50
2017-10-30T14:02:28.969Z,21.90
2017-10-30T14:04:57.838Z,18.70
2017-10-30T14:07:25.895Z,11.63
2017-10-30T14:09:53.745Z,13.13
2017-10-30T14:12:21.837Z,12.43
2017-10-30T14:14:49.854Z,18.23
2017-10-30T14:17:17.684Z,14.10
2017-10-30T14:19:45.632Z,16.17
2017-10-30T14:22:13.625Z,13.63
2017-10-30T14:24:42.298Z,14.80
2017-10-30T14:27:10.244Z,6.93
2017-10-30T14:29:38.194Z,8.10
2017-10-30T14:32:06.093Z,18.73
2017-10-30T14:34:34.075Z,7.37
2017-10-30T14:37:02.019Z,9.13
2017-10-30T14:39:29.929Z,13.20
2017-10-30T14:41:58.584Z,11.40
2017-10-30T14:44:26.657Z,16.10
2017-10-30T14:46:54.689Z,15.37
2017-10-30T14:49:22.976Z,10.63
2017-10-30T14:51:50.972Z,9.50
2017-10-30T14:54:18.928Z,21.43
2017-10-30T14:56:48.565Z,10.73
2017-10-30T14:59:16.729Z,9.93
2017-10-30T15:01:44.650Z,18.97
2017-10-30T15:04:12.863Z,13.47
2017-10-30T15:06:40.847Z,8.37
2017-10-30T15:09:08.785Z,16.23
2017-10-30T15:11:36.558Z,17.37
2017-10-30T15:14:04.566Z,7.43
2017-10-30T15:16:33.215Z,13.37
2017-10-30T15:19:01.376Z,12.27
2017-10-30T15:21:29.480Z,16.97
2017-10-30T15:23:57.290Z,6.40
2017-10-30T15:26:25.102Z,14.87
2017-10-30T15:28:53.089Z,15.60
2017-10-30T15:31:20.892Z,22.40
2017-10-30T15:33:48.794Z,22.80
2017-10-30T15:36:16.783Z,9.87
2017-10-30T15:38:44.821Z,15.93
2017-10-30T15:41:12.994Z,15.07
2017-10-30T15:43:40.850Z,16.37
2017-10-30T15:46:08.756Z,8.47
2017-10-30T15:48:36.737Z,9.67
2017-10-30T15:51:04.537Z,14.00
2017-10-30T15:53:32.450Z,16.37
2017-10-30T15:56:00.397Z,11.97
2017-10-30T15:58:28.282Z,12.87
2017-10-30T16:00:56.337Z,17.23
2017-10-30T16:03:24.242Z,39.20
2017-10-30T16:05:53.092Z,13.10
2017-10-30T16:08:20.960Z,11.30
2017-10-30T16:10:48.838Z,10.33
2017-10-30T16:13:16.742Z,9.77
2017-10-30T16:15:45.493Z,14.33
2017-10-30T16:18:13.453Z,9.97
2017-10-30T16:20:41.259Z,10.47
2017-10-30T16:23:10.022Z,14.73
2017-10-30T16:25:37.995Z,16.80
2017-10-30T16:28:06.882Z,14.73
2017-10-30T16:30:35.095Z,14.50
2017-10-30T16:33:02.954Z,8.10
2017-10-30T16:35:31.612Z,5.03
2017-10-30T16:37:59.554Z,11.33
2017-10-30T16:40:27.753Z,13.90
2017-10-30T16:42:55.712Z,9.93
2017-10-30T16:45:37.107Z,10.07
2017-10-30T16:48:05.767Z,12.80
2017-10-30T16:50:33.940Z,12.37
2017-10-30T16:53:02.040Z,7.23
2017-10-30T16:55:30.111Z,7.80
2017-10-30T16:57:58.396Z,14.87
2017-10-30T17:00:26.351Z,13.23
2017-10-30T17:02:54.293Z,17.83
2017-10-30T17:05:22.150Z,15.73
2017-10-30T17:07:50.131Z,16.90
2017-10-30T17:10:18.020Z,4.50
2017-10-30T17:12:47.424Z,10.13
2017-10-30T17:15:15.398Z,20.77
2017-10-30T17:17:43.645Z,44.10
2017-10-30T17:20:11.529Z,34.80
2017-10-30T17:22:39.294Z,26.13
2017-10-30T17:25:07.245Z,27.17
2017-10-30T17:27:35.047Z,29.33
2017-10-30T17:30:02.895Z,16.50
2017-10-30T17:32:30.657Z,17.03
2017-10-30T17:35:00.434Z,8.97
2017-10-30T17:37:28.226Z,8.10
2017-10-30T17:39:56.085Z,8.70
2017-10-30T17:42:24.148Z,10.93
2017-10-30T17:44:52.019Z,9.43
2017-10-30T17:47:19.916Z,13.80
2017-10-30T17:49:47.820Z,17.40
2017-10-30T17:52:15.825Z,17.67
2017-10-30T17:54:43.802Z,8.60
2017-10-30T17:57:11.874Z,10.93
2017-10-30T17:59:41.100Z,16.80
2017-10-30T18:02:09.745Z,9.80
2017-10-30T18:04:37.630Z,18.60
2017-10-30T18:07:05.499Z,50.10
2017-10-30T18:09:33.370Z,30.37
2017-10-30T18:12:01.550Z,24.77
2017-10-30T18:14:30.254Z,24.93
2017-10-30T18:16:59.095Z,19.80
2017-10-30T18:19:27.131Z,22.43
2017-10-30T18:22:00.830Z,22.97
2017-10-30T18:24:28.847Z,41.47
2017-10-30T18:26:56.909Z,20.60
2017-10-30T18:29:24.882Z,22.30
2017-10-30T18:31:52.851Z,20.53
2017-10-30T18:34:20.876Z,24.23
2017-10-30T18:36:49.518Z,20.20
2017-10-30T18:39:18.227Z,16.43
2017-10-30T18:41:47.179Z,14.33
2017-10-30T18:44:15.464Z,19.07
2017-10-30T18:46:43.357Z,11.87
2017-10-30T18:49:11.162Z,13.53
2017-10-30T18:51:38.970Z,18.43
2017-10-30T18:54:06.919Z,22.03
2017-10-30T18:56:34.887Z,19.90
2017-10-30T18:59:02.774Z,14.47
2017-10-30T19:01:30.752Z,18.73
2017-10-30T19:03:58.935Z,17.23
2017-10-30T19:06:27.702Z,16.20
2017-10-30T19:08:55.656Z,13.83
2017-10-30T19:11:24.031Z,10.33
2017-10-30T19:13:51.925Z,16.13
2017-10-30T19:16:19.753Z,19.10
2017-10-30T19:18:47.590Z,20.77
2017-10-30T19:21:15.703Z,26.77
2017-10-30T19:23:43.931Z,21.67
2017-10-30T19:26:12.085Z,20.13
2017-10-30T19:28:40.829Z,22.73
2017-10-30T19:31:08.804Z,25.43
2017-10-30T19:33:36.672Z,19.50
2017-10-30T19:36:04.504Z,19.17
2017-10-30T19:38:32.550Z,20.67
2017-10-30T19:41:01.511Z,15.07
2017-10-30T19:43:29.471Z,19.40
2017-10-30T19:45:57.455Z,22.60
2017-10-30T19:48:25.935Z,27.83
2017-10-30T19:50:53.991Z,18.27
2017-10-30T19:53:22.239Z,20.80
2017-10-30T19:55:50.235Z,41.37
2017-10-30T19:58:18.129Z,23.20
2017-10-30T20:00:46.250Z,51.63
2017-10-30T20:03:14.252Z,57.57
2017-10-30T20:05:47.982Z,38.07
2017-10-30T20:08:21.703Z,37.43
2017-10-30T20:10:56.293Z,26.93
2017-10-30T20:13:24.686Z,29.00
2017-10-30T20:15:53.467Z,18.10
2017-10-30T20:18:21.423Z,24.23
2017-10-30T20:20:49.629Z,24.73
2017-10-30T20:23:18.284Z,44.43
2017-10-30T20:25:46.368Z,17.73
2017-10-30T20:28:14.242Z,25.80
2017-10-30T20:30:42.294Z,29.10
2017-10-30T20:33:10.285Z,28.47
2017-10-30T20:35:38.365Z,21.23
2017-10-30T20:38:07.016Z,29.13
2017-10-30T20:40:34.911Z,27.63
2017-10-30T20:43:03.755Z,31.07
2017-10-30T20:45:31.873Z,28.27
2017-10-30T20:48:00.718Z,30.80
2017-10-30T20:50:28.730Z,28.83
2017-10-30T20:52:57.474Z,21.27
2017-10-30T20:55:25.644Z,24.63
2017-10-30T20:57:53.756Z,20.63
2017-10-30T21:00:21.604Z,22.30
2017-10-30T21:02:49.457Z,26.37
2017-10-30T21:05:17.492Z,18.60
2017-10-30T21:07:45.267Z,13.17
2017-10-30T21:10:13.324Z,16.23
2017-10-30T21:12:42.148Z,31.30
2017-10-30T21:15:10.029Z,20.83
2017-10-30T21:17:37.903Z,31.00
2017-10-30T21:20:06.767Z,25.00
2017-10-30T21:22:34.646Z,18.37
2017-10-30T21:25:02.711Z,21.60
2017-10-30T21:27:30.774Z,18.93
2017-10-30T21:29:58.745Z,17.40
2017-10-30T21:32:26.611Z,21.73
2017-10-30T21:34:54.504Z,17.87
2017-10-30T21:37:22.558Z,9.23
2017-10-30T21:39:50.430Z,15.90
2017-10-30T21:42:18.592Z,18.50
2017-10-30T21:44:46.473Z,17.43
2017-10-30T21:47:14.387Z,13.33
2017-10-30T21:49:42.320Z,16.50
2017-10-30T21:52:10.262Z,10.33
2017-10-30T21:54:38.640Z,19.93
2017-10-30T21:57:07.426Z,22.73
2017-10-30T21:59:35.311Z,15.40
2017-10-30T22:02:06.490Z,18.07
2017-10-30T22:04:35.633Z,17.03
2017-10-30T22:07:03.703Z,18.33
2017-10-30T22:09:31.911Z,20.00
2017-10-30T22:12:00.709Z,20.30
2017-10-30T22:14:30.805Z,20.47
2017-10-30T22:16:58.852Z,18.13
2017-10-30T22:19:27.031Z,15.53
2017-10-30T22:21:55.203Z,16.37
2017-10-30T22:24:23.458Z,23.53
2017-10-30T22:26:51.451Z,23.77
2017-10-30T22:29:19.525Z,20.93
2017-10-30T22:31:47.364Z,19.83
2017-10-30T22:34:15.266Z,24.80
2017-10-30T22:36:43.135Z,24.20
2017-10-30T22:39:11.089Z,24.77
2017-10-30T22:41:38.885Z,18.07
2017-10-30T22:44:11.430Z,17.10
2017-10-30T22:46:39.268Z,16.97
2017-10-30T22:49:07.185Z,24.20
2017-10-30T22:51:36.060Z,15.53
2017-10-30T22:54:03.933Z,21.57
2017-10-30T22:56:31.911Z,12.77
2017-10-30T22:58:59.962Z,17.30
2017-10-30T23:01:29.159Z,16.60
2017-10-30T23:03:57.001Z,20.77
2017-10-30T23:06:25.000Z,11.23
2017-10-30T23:08:52.859Z,14.67
2017-10-30T23:11:20.593Z,14.27
2017-10-30T23:13:48.450Z,16.93
2017-10-30T23:16:16.266Z,14.13
2017-10-30T23:18:44.339Z,18.00
2017-10-30T23:21:12.291Z,19.53
2017-10-30T23:23:40.188Z,20.37
2017-10-30T23:26:07.956Z,14.63
2017-10-30T23:28:35.723Z,9.13
2017-10-30T23:31:03.551Z,18.83
2017-10-30T23:33:31.415Z,12.17
2017-10-30T23:35:59.201Z,10.10
2017-10-30T23:38:27.150Z,11.13
2017-10-30T23:40:55.449Z,13.00
2017-10-30T23:43:23.491Z,13.70
2017-10-30T23:45:51.462Z,8.63
2017-10-30T23:48:19.230Z,16.50
2017-10-30T23:50:47.114Z,14.03
2017-10-30T23:53:14.874Z,20.80
2017-10-30T23:55:42.776Z,23.60
2017-10-30T23:58:11.616Z,8.33
